Mayport Ns (Adm David L. Mcdonald Field) Airport
KNRB : now visible

Airfield :











YOU CAN JOIN US ON...

 
LOGIN :

Register | Disclaimer

   EN    FR    IT 

 









Legend :    VFR   Marginal VFR   IFR   Intensive IFR   Very Intensive IFR
Visi :
Ceiling :
>= 8 km
>= 3000ft
5 to 8 km
1000 to 3000 ft
1500m to 5 km
500 to 1000 ft
800 to 1500m
200 to 500 ft
< 800m
< 200 ft
Symbols :   Thunderstorms  Fog  Heavy snow  Heavy precipitations  Wind > 20 kt






- Airport Elevation : 15 ft


KNRB - Mayport Ns (Adm David L. Mcdonald Field)

CURRENT METAR :
  • 282252Z 26010G18KT 10SM FEW150 BKN250 27/13 A3006 RMK AO2 SLP178 T02670133

EXPIRED METARs :
  • 282152Z 24013G23KT 10SM FEW150 BKN250 28/13 A3003 RMK AO2 SLP169 T02830128
  • 282052Z 23014G23KT 10SM FEW150 BKN250 29/13 A3001 RMK AO2 SLP161 T02890128 56020
  • 281952Z 22010KT 10SM FEW150 BKN250 28/14 A3003 RMK AO2 SLP168 T02830144
  • 281852Z 22015KT 10SM FEW150 BKN250 28/14 A3005 RMK AO2 SLP174 T02830139

TAF TAF KNRB
Valid from the 28 at 23:00 until the 29 at 23:00 UTC


2823/2923 24010G20KT 9999 FEW040 SCT100 BKN250 QNH3000INS
FM290300 26010KT 9999 VCSH FEW025 BKN120 OVC200 QNH3005INS
FM290800 35010G18KT 9999 SCT020 BKN045 BKN250 QNH3015INS
FM291200 03016G24KT 9999 VCSH SCT010 BKN025 OVC060 QNH3025INS AUTOMATED SENSOR METWATCH 2904 TIL 2910 TX18/2917Z TN15/2911Z FN20022
KZJX FIR / North America



MET'MAP, your aeronautical weather chart ! - Copyright ORBIFLY December 2007 - Disclaimer

ORBIFLY MET'MAP TEAM :

Programming & Development : Alexandra Zaïnal
Original concept : Baudouin d'Aumeries
Technical & hardware support : Manuel Goepfert
Assistance : Marc-Olivier Méhu




SOURCES & CREDITS :

   NOAA       Earth
Advisory